createdAt,value
2018-01-15T00:00:50.968Z,33.20
2018-01-15T00:01:50.938Z,33.10
2018-01-15T00:03:44.396Z,33.20
2018-01-15T00:04:44.306Z,33.20
2018-01-15T00:06:37.552Z,33.48
2018-01-15T00:07:37.537Z,33.29
2018-01-15T00:09:31.740Z,33.39
2018-01-15T00:10:31.637Z,33.29
2018-01-15T00:12:24.929Z,33.39
2018-01-15T00:13:24.844Z,33.48
2018-01-15T00:15:18.121Z,33.39
2018-01-15T00:16:18.025Z,33.29
2018-01-15T00:18:11.302Z,33.39
2018-01-15T00:19:11.202Z,33.39
2018-01-15T00:21:04.462Z,33.48
2018-01-15T00:22:04.345Z,33.48
2018-01-15T00:23:57.634Z,33.29
2018-01-15T00:24:57.551Z,33.20
2018-01-15T00:26:50.779Z,33.39
2018-01-15T00:27:50.680Z,32.81
2018-01-15T00:29:43.962Z,33.10
2018-01-15T00:30:43.880Z,33.10
2018-01-15T00:32:37.149Z,33.20
2018-01-15T00:33:37.043Z,33.20
2018-01-15T00:35:30.286Z,33.00
2018-01-15T00:36:30.198Z,33.20
2018-01-15T00:38:24.493Z,33.20
2018-01-15T00:39:24.400Z,33.20
2018-01-15T00:41:17.657Z,32.91
2018-01-15T00:42:17.576Z,33.10
2018-01-15T00:44:11.894Z,33.10
2018-01-15T00:45:11.778Z,33.10
2018-01-15T00:47:04.995Z,33.29
2018-01-15T00:48:04.908Z,33.09
2018-01-15T00:49:58.204Z,33.20
2018-01-15T00:50:58.109Z,33.10
2018-01-15T00:52:51.364Z,33.18
2018-01-15T00:53:51.274Z,33.37
2018-01-15T00:55:44.562Z,33.37
2018-01-15T00:56:44.462Z,33.47
2018-01-15T00:58:37.730Z,33.09
2018-01-15T00:59:37.627Z,33.28
2018-01-15T01:01:30.928Z,33.28
2018-01-15T01:02:30.813Z,33.37
2018-01-15T01:04:24.080Z,33.18
2018-01-15T01:05:23.995Z,33.10
2018-01-15T01:07:17.246Z,33.28
2018-01-15T01:08:17.132Z,33.28
2018-01-15T01:10:10.437Z,33.28
2018-01-15T01:11:10.350Z,33.37
2018-01-15T01:13:04.614Z,33.47
2018-01-15T01:14:04.518Z,33.57
2018-01-15T01:15:57.782Z,33.37
2018-01-15T01:16:57.697Z,33.57
2018-01-15T01:18:50.959Z,33.37
2018-01-15T01:19:50.847Z,33.57
2018-01-15T01:21:44.095Z,33.57
2018-01-15T01:22:44.011Z,33.37
2018-01-15T01:24:38.316Z,33.37
2018-01-15T01:25:38.218Z,33.47
2018-01-15T01:27:31.469Z,33.28
2018-01-15T01:28:31.369Z,33.47
2018-01-15T01:30:24.642Z,33.47
2018-01-15T01:31:24.539Z,33.28
2018-01-15T01:33:17.787Z,33.37
2018-01-15T01:34:17.700Z,33.37
2018-01-15T01:36:12.002Z,33.09
2018-01-15T01:37:11.904Z,33.18
2018-01-15T01:39:05.151Z,33.18
2018-01-15T01:40:05.068Z,33.28
2018-01-15T01:41:58.342Z,33.47
2018-01-15T01:42:58.233Z,33.37
2018-01-15T01:44:51.488Z,33.37
2018-01-15T01:45:51.404Z,33.37
2018-01-15T01:47:44.673Z,33.37
2018-01-15T01:48:44.577Z,33.37
2018-01-15T01:50:37.816Z,33.37
2018-01-15T01:51:37.726Z,33.47
2018-01-15T01:53:31.064Z,33.37
2018-01-15T01:54:30.922Z,33.09
2018-01-15T01:56:24.235Z,33.37
2018-01-15T01:57:24.153Z,33.47
2018-01-15T01:59:17.466Z,33.37
2018-01-15T02:00:17.364Z,33.57
2018-01-15T02:02:11.638Z,33.37
2018-01-15T02:03:11.534Z,33.28
2018-01-15T02:05:04.825Z,33.28
2018-01-15T02:06:04.732Z,33.28
2018-01-15T02:07:57.998Z,33.09
2018-01-15T02:08:57.920Z,33.47
2018-01-15T02:10:51.195Z,33.28
2018-01-15T02:11:51.092Z,33.37
2018-01-15T02:13:45.345Z,33.37
2018-01-15T02:14:45.264Z,33.37
2018-01-15T02:16:38.498Z,33.28
2018-01-15T02:17:38.417Z,33.47
2018-01-15T02:19:31.655Z,33.47
2018-01-15T02:20:31.572Z,33.37
2018-01-15T02:22:25.892Z,32.99
2018-01-15T02:23:25.796Z,33.28
2018-01-15T02:25:19.037Z,33.37
2018-01-15T02:26:18.956Z,33.09
2018-01-15T02:28:12.338Z,33.18
2018-01-15T02:29:12.159Z,33.17
2018-01-15T02:31:05.408Z,33.17
2018-01-15T02:32:05.332Z,33.28
2018-01-15T02:33:58.576Z,33.45
2018-01-15T02:34:58.476Z,33.28
2018-01-15T02:36:51.728Z,33.45
2018-01-15T02:37:51.654Z,33.37
2018-01-15T02:39:44.911Z,33.17
2018-01-15T02:40:44.862Z,33.28
2018-01-15T02:42:38.056Z,33.28
2018-01-15T02:43:37.985Z,33.36
2018-01-15T02:45:31.291Z,33.26
2018-01-15T02:46:31.153Z,33.17
2018-01-15T02:48:24.421Z,33.26
2018-01-15T02:49:24.319Z,33.47
2018-01-15T02:51:18.603Z,33.36
2018-01-15T02:52:18.505Z,33.36
2018-01-15T02:54:11.826Z,33.36
2018-01-15T02:55:11.739Z,33.55
2018-01-15T02:57:05.006Z,33.45
2018-01-15T02:58:04.874Z,33.36
2018-01-15T02:59:58.167Z,33.36
2018-01-15T03:00:58.075Z,33.55
2018-01-15T03:02:52.377Z,33.26
2018-01-15T03:03:52.250Z,33.36
2018-01-15T03:05:45.543Z,33.36
2018-01-15T03:06:45.416Z,33.45
2018-01-15T03:08:38.719Z,33.36
2018-01-15T03:09:38.611Z,33.45
2018-01-15T03:11:31.874Z,33.36
2018-01-15T03:12:31.784Z,33.45
2018-01-15T03:14:25.059Z,33.45
2018-01-15T03:15:24.959Z,33.36
2018-01-15T03:17:18.185Z,33.55
2018-01-15T03:18:18.101Z,33.45
2018-01-15T03:20:11.402Z,33.45
2018-01-15T03:21:11.263Z,33.45
2018-01-15T03:23:04.529Z,33.26
2018-01-15T03:24:04.420Z,33.36
2018-01-15T03:25:57.730Z,33.36
2018-01-15T03:26:57.623Z,33.26
2018-01-15T03:28:51.916Z,33.55
2018-01-15T03:29:51.806Z,33.36
2018-01-15T03:31:45.105Z,33.36
2018-01-15T03:32:45.004Z,33.26
2018-01-15T03:34:39.245Z,33.36
2018-01-15T03:35:39.160Z,33.45
2018-01-15T03:37:32.453Z,33.36
2018-01-15T03:38:32.332Z,33.55
2018-01-15T03:40:25.689Z,33.45
2018-01-15T03:41:25.500Z,33.36
2018-01-15T03:43:18.773Z,33.26
2018-01-15T03:44:18.668Z,33.45
2018-01-15T03:46:11.923Z,33.55
2018-01-15T03:47:11.845Z,33.45
2018-01-15T03:49:05.109Z,33.36
2018-01-15T03:50:05.026Z,34.03
2018-01-15T03:51:59.290Z,34.42
2018-01-15T03:52:59.199Z,34.52
2018-01-15T03:54:52.535Z,34.61
2018-01-15T03:55:52.417Z,34.32
2018-01-15T03:57:45.727Z,34.42
2018-01-15T03:58:45.637Z,34.42
2018-01-15T04:00:39.960Z,34.42
2018-01-15T04:01:39.849Z,34.13
2018-01-15T04:03:33.106Z,34.52
2018-01-15T04:04:33.014Z,34.22
2018-01-15T04:06:26.273Z,34.42
2018-01-15T04:07:26.159Z,34.22
2018-01-15T04:09:19.412Z,34.32
2018-01-15T04:10:19.324Z,34.42
2018-01-15T04:12:12.592Z,34.03
2018-01-15T04:13:12.511Z,34.22
2018-01-15T04:15:05.774Z,34.03
2018-01-15T04:16:05.696Z,33.94
2018-01-15T04:17:58.987Z,33.84
2018-01-15T04:18:58.892Z,33.45
2018-01-15T04:20:52.156Z,33.26
2018-01-15T04:21:52.077Z,33.36
2018-01-15T04:23:45.361Z,33.65
2018-01-15T04:24:45.244Z,33.74
2018-01-15T04:26:38.461Z,33.94
2018-01-15T04:27:38.372Z,34.03
2018-01-15T04:29:31.671Z,34.03
2018-01-15T04:30:31.570Z,34.13
2018-01-15T04:32:25.826Z,34.32
2018-01-15T04:33:25.752Z,34.53
2018-01-15T04:35:19.060Z,34.92
2018-01-15T04:36:18.962Z,35.02
2018-01-15T04:38:12.207Z,34.82
2018-01-15T04:39:12.140Z,34.53
2018-01-15T04:41:05.398Z,34.63
2018-01-15T04:42:05.302Z,34.63
2018-01-15T04:43:58.570Z,34.05
2018-01-15T04:44:58.486Z,34.05
2018-01-15T04:46:51.738Z,34.05
2018-01-15T04:47:51.636Z,34.14
2018-01-15T04:49:44.887Z,36.65
2018-01-15T04:50:44.798Z,38.20
2018-01-15T04:52:38.069Z,41.96
2018-01-15T04:53:37.956Z,43.50
2018-01-15T04:55:32.235Z,44.49
2018-01-15T04:56:32.138Z,44.68
2018-01-15T04:58:26.383Z,44.20
2018-01-15T04:59:26.286Z,42.75
2018-01-15T05:01:19.664Z,41.98
2018-01-15T05:02:19.485Z,41.02
2018-01-15T05:04:12.831Z,40.34
2018-01-15T05:05:12.664Z,39.28
2018-01-15T05:07:05.879Z,39.47
2018-01-15T05:08:05.796Z,39.47
2018-01-15T05:09:59.105Z,38.21
2018-01-15T05:10:58.988Z,38.10
2018-01-15T05:12:52.330Z,38.39
2018-01-15T05:13:52.217Z,37.91
2018-01-15T05:15:46.479Z,37.62
2018-01-15T05:16:46.376Z,37.62
2018-01-15T05:18:40.648Z,36.94
2018-01-15T05:19:40.573Z,37.04
2018-01-15T05:21:34.872Z,36.55
2018-01-15T05:22:34.741Z,36.85
2018-01-15T05:24:28.012Z,36.07
2018-01-15T05:25:27.932Z,35.98
2018-01-15T05:27:21.742Z,36.17
2018-01-15T05:28:21.156Z,35.98
2018-01-15T05:30:14.392Z,35.98
2018-01-15T05:31:14.284Z,36.27
2018-01-15T05:33:07.601Z,36.36
2018-01-15T05:34:07.503Z,36.46
2018-01-15T05:36:01.808Z,37.04
2018-01-15T05:37:01.666Z,36.94
2018-01-15T05:38:54.948Z,36.75
2018-01-15T05:39:54.827Z,36.36
2018-01-15T05:41:48.099Z,36.36
2018-01-15T05:42:48.008Z,36.36
2018-01-15T05:44:41.295Z,36.65
2018-01-15T05:45:41.181Z,36.55
2018-01-15T05:47:34.445Z,36.75
2018-01-15T05:48:34.353Z,36.94
2018-01-15T05:50:27.675Z,36.27
2018-01-15T05:51:27.547Z,36.27
2018-01-15T05:53:20.822Z,35.98
2018-01-15T05:54:20.737Z,36.06
2018-01-15T05:56:14.079Z,35.78
2018-01-15T05:57:13.955Z,36.36
2018-01-15T05:59:07.222Z,36.36
2018-01-15T06:00:07.135Z,36.07
2018-01-15T06:02:00.428Z,36.07
2018-01-15T06:03:00.323Z,36.07
2018-01-15T06:04:53.596Z,35.98
2018-01-15T06:05:53.476Z,36.17
2018-01-15T06:07:46.840Z,36.07
2018-01-15T06:08:46.731Z,35.88
2018-01-15T06:10:40.563Z,36.65
2018-01-15T06:11:39.891Z,36.65
2018-01-15T06:13:34.169Z,35.96
2018-01-15T06:14:34.036Z,36.35
2018-01-15T06:16:27.287Z,36.46
2018-01-15T06:17:27.220Z,35.98
2018-01-15T06:19:20.482Z,36.25
2018-01-15T06:20:20.374Z,35.96
2018-01-15T06:22:13.628Z,36.17
2018-01-15T06:23:13.543Z,36.46
2018-01-15T06:25:06.820Z,36.07
2018-01-15T06:26:06.702Z,36.46
2018-01-15T06:27:59.966Z,36.27
2018-01-15T06:28:59.885Z,36.55
2018-01-15T06:30:53.164Z,36.25
2018-01-15T06:31:53.067Z,35.78
2018-01-15T06:33:46.306Z,36.17
2018-01-15T06:34:46.245Z,35.98
2018-01-15T06:36:39.476Z,35.86
2018-01-15T06:37:39.365Z,35.67
2018-01-15T06:39:32.650Z,36.15
2018-01-15T06:40:32.574Z,36.06
2018-01-15T06:42:25.844Z,36.17
2018-01-15T06:43:25.744Z,35.96
2018-01-15T06:45:19.006Z,35.88
2018-01-15T06:46:18.925Z,35.77
2018-01-15T06:48:12.207Z,36.15
2018-01-15T06:49:12.096Z,36.06
2018-01-15T06:51:05.386Z,36.25
2018-01-15T06:52:05.248Z,36.07
2018-01-15T06:53:59.538Z,36.06
2018-01-15T06:54:59.423Z,35.96
2018-01-15T06:56:53.661Z,35.67
2018-01-15T06:57:53.566Z,35.67
2018-01-15T06:59:46.873Z,35.48
2018-01-15T07:00:46.759Z,35.50
2018-01-15T07:02:41.097Z,35.48
2018-01-15T07:03:40.932Z,35.48
2018-01-15T07:05:34.216Z,35.59
2018-01-15T07:06:34.083Z,35.58
2018-01-15T07:08:28.339Z,35.77
2018-01-15T07:09:28.272Z,35.30
2018-01-15T07:11:21.542Z,36.06
2018-01-15T07:12:21.423Z,35.19
2018-01-15T07:14:14.665Z,35.67
2018-01-15T07:15:14.578Z,36.15
2018-01-15T07:17:07.849Z,35.98
2018-01-15T07:18:07.750Z,36.06
2018-01-15T07:20:01.012Z,36.07
2018-01-15T07:21:00.912Z,36.15
2018-01-15T07:22:54.208Z,35.77
2018-01-15T07:23:54.101Z,36.25
2018-01-15T07:25:47.369Z,35.30
2018-01-15T07:26:47.276Z,35.67
2018-01-15T07:28:40.555Z,35.77
2018-01-15T07:29:40.464Z,35.86
2018-01-15T07:31:33.727Z,35.77
2018-01-15T07:32:33.630Z,35.58
2018-01-15T07:34:26.934Z,35.48
2018-01-15T07:35:26.811Z,35.48
2018-01-15T07:37:20.046Z,35.10
2018-01-15T07:38:19.952Z,35.67
2018-01-15T07:40:14.250Z,35.28
2018-01-15T07:41:14.132Z,35.86
2018-01-15T07:43:07.423Z,35.86
2018-01-15T07:44:07.320Z,35.77
2018-01-15T07:46:00.598Z,35.77
2018-01-15T07:47:00.486Z,35.58
2018-01-15T07:48:53.772Z,36.25
2018-01-15T07:49:53.677Z,36.06
2018-01-15T07:51:47.991Z,35.96
2018-01-15T07:52:47.861Z,35.96
2018-01-15T07:54:41.129Z,35.98
2018-01-15T07:55:41.038Z,36.25
2018-01-15T07:57:35.862Z,36.25
2018-01-15T07:58:34.224Z,35.96
2018-01-15T08:00:27.492Z,36.15
2018-01-15T08:01:27.391Z,35.96
2018-01-15T08:03:21.708Z,36.15
2018-01-15T08:04:21.600Z,36.44
2018-01-15T08:06:14.896Z,36.15
2018-01-15T08:07:14.813Z,35.96
2018-01-15T08:09:08.106Z,36.25
2018-01-15T08:10:07.990Z,35.96
2018-01-15T08:12:01.278Z,35.77
2018-01-15T08:13:01.189Z,35.96
2018-01-15T08:14:54.517Z,36.06
2018-01-15T08:15:54.380Z,35.86
2018-01-15T08:17:47.666Z,35.77
2018-01-15T08:18:47.579Z,35.86
2018-01-15T08:20:40.855Z,35.96
2018-01-15T08:21:40.735Z,36.15
2018-01-15T08:23:33.995Z,35.96
2018-01-15T08:24:33.913Z,36.25
2018-01-15T08:26:28.150Z,35.86
2018-01-15T08:27:28.036Z,35.77
2018-01-15T08:29:21.309Z,35.67
2018-01-15T08:30:21.214Z,36.06
2018-01-15T08:32:14.542Z,35.10
2018-01-15T08:33:14.419Z,35.19
2018-01-15T08:35:08.694Z,35.77
2018-01-15T08:36:08.604Z,35.38
2018-01-15T08:38:01.914Z,35.48
2018-01-15T08:39:01.801Z,35.96
2018-01-15T08:40:55.044Z,35.96
2018-01-15T08:41:54.962Z,35.67
2018-01-15T08:43:48.285Z,36.06
2018-01-15T08:44:48.163Z,35.77
2018-01-15T08:46:41.385Z,36.06
2018-01-15T08:47:41.296Z,35.38
2018-01-15T08:49:35.562Z,35.40
2018-01-15T08:50:35.476Z,35.77
2018-01-15T08:52:28.709Z,35.88
2018-01-15T08:53:28.619Z,35.48
2018-01-15T08:55:22.900Z,35.86
2018-01-15T08:56:22.800Z,35.77
2018-01-15T08:58:17.053Z,35.96
2018-01-15T08:59:16.965Z,35.96
2018-01-15T09:01:10.294Z,35.67
2018-01-15T09:02:10.184Z,36.15
2018-01-15T09:04:03.427Z,36.15
2018-01-15T09:05:03.341Z,35.67
2018-01-15T09:06:56.626Z,36.15
2018-01-15T09:07:56.490Z,35.86
2018-01-15T09:09:49.751Z,35.58
2018-01-15T09:10:49.675Z,35.67
2018-01-15T09:12:42.950Z,35.86
2018-01-15T09:13:42.854Z,35.77
2018-01-15T09:15:36.133Z,35.96
2018-01-15T09:16:36.057Z,35.10
2018-01-15T09:18:30.343Z,36.06
2018-01-15T09:19:30.236Z,36.06
2018-01-15T09:21:23.503Z,35.67
2018-01-15T09:22:23.414Z,35.67
2018-01-15T09:24:17.799Z,35.78
2018-01-15T09:25:17.664Z,35.48
2018-01-15T09:27:10.874Z,35.38
2018-01-15T09:28:10.798Z,35.67
2018-01-15T09:30:04.075Z,35.58
2018-01-15T09:31:03.959Z,35.86
2018-01-15T09:32:57.276Z,35.48
2018-01-15T09:33:57.145Z,35.28
2018-01-15T09:35:50.435Z,35.38
2018-01-15T09:36:50.313Z,35.38
2018-01-15T09:38:44.580Z,35.38
2018-01-15T09:39:44.502Z,35.67
2018-01-15T09:41:37.775Z,35.58
2018-01-15T09:42:37.656Z,35.50
2018-01-15T09:44:30.904Z,35.86
2018-01-15T09:45:30.837Z,35.58
2018-01-15T09:47:24.098Z,35.50
2018-01-15T09:48:24.002Z,35.67
2018-01-15T09:50:18.278Z,35.28
2018-01-15T09:51:18.198Z,35.38
2018-01-15T09:53:12.517Z,35.38
2018-01-15T09:54:12.378Z,35.48
2018-01-15T09:56:08.132Z,35.67
2018-01-15T09:57:08.086Z,35.38
2018-01-15T09:59:01.450Z,35.48
2018-01-15T10:00:01.260Z,36.06
2018-01-15T10:01:55.513Z,35.96
2018-01-15T10:02:55.429Z,35.19
2018-01-15T10:04:49.712Z,35.67
2018-01-15T10:05:49.615Z,35.48
2018-01-15T10:07:42.860Z,35.86
2018-01-15T10:08:42.773Z,35.77
2018-01-15T10:10:36.112Z,35.67
2018-01-15T10:11:35.987Z,35.67
2018-01-15T10:13:29.253Z,35.28
2018-01-15T10:14:29.168Z,35.48
2018-01-15T10:16:23.427Z,35.28
2018-01-15T10:17:23.314Z,35.38
2018-01-15T10:19:17.609Z,35.48
2018-01-15T10:20:17.514Z,35.10
2018-01-15T10:22:10.774Z,34.80
2018-01-15T10:23:10.688Z,34.80
2018-01-15T10:25:04.041Z,34.90
2018-01-15T10:26:03.871Z,35.48
2018-01-15T10:27:57.151Z,35.10
2018-01-15T10:28:57.032Z,35.10
2018-01-15T10:30:50.315Z,34.90
2018-01-15T10:31:50.211Z,35.19
2018-01-15T10:33:43.496Z,35.19
2018-01-15T10:34:43.405Z,35.10
2018-01-15T10:36:36.608Z,35.67
2018-01-15T10:37:36.519Z,35.58
2018-01-15T10:39:30.791Z,35.77
2018-01-15T10:40:30.689Z,35.96
2018-01-15T10:42:23.950Z,35.10
2018-01-15T10:43:23.857Z,35.48
2018-01-15T10:45:17.148Z,36.06
2018-01-15T10:46:17.072Z,35.67
2018-01-15T10:48:10.325Z,35.67
2018-01-15T10:49:10.263Z,35.48
2018-01-15T10:51:03.502Z,35.19
2018-01-15T10:52:03.391Z,35.48
2018-01-15T10:53:56.691Z,35.48
2018-01-15T10:54:56.565Z,35.10
2018-01-15T10:56:49.835Z,35.19
2018-01-15T10:57:49.707Z,35.38
2018-01-15T10:59:43.001Z,35.58
2018-01-15T11:00:42.903Z,35.38
2018-01-15T11:02:36.175Z,35.19
2018-01-15T11:03:36.064Z,35.19
2018-01-15T11:05:29.332Z,35.28
2018-01-15T11:06:29.243Z,35.00
2018-01-15T11:08:22.534Z,34.90
2018-01-15T11:09:22.417Z,35.10
2018-01-15T11:11:15.671Z,35.19
2018-01-15T11:12:15.592Z,35.00
2018-01-15T11:14:08.852Z,35.10
2018-01-15T11:15:08.757Z,35.38
2018-01-15T11:17:02.973Z,35.19
2018-01-15T11:18:02.891Z,35.10
2018-01-15T11:19:56.204Z,35.10
2018-01-15T11:20:56.080Z,35.10
2018-01-15T11:22:49.358Z,35.10
2018-01-15T11:23:49.268Z,35.19
2018-01-15T11:25:42.898Z,35.77
2018-01-15T11:26:42.450Z,35.58
2018-01-15T11:28:36.719Z,35.10
2018-01-15T11:29:36.642Z,35.67
2018-01-15T11:31:29.908Z,35.19
2018-01-15T11:32:29.788Z,35.19
2018-01-15T11:34:23.053Z,35.38
2018-01-15T11:35:22.967Z,35.10
2018-01-15T11:37:16.241Z,35.38
2018-01-15T11:38:16.133Z,35.19
2018-01-15T11:40:09.388Z,35.19
2018-01-15T11:41:09.308Z,35.67
2018-01-15T11:43:02.648Z,35.77
2018-01-15T11:44:02.516Z,35.38
2018-01-15T11:45:56.770Z,35.77
2018-01-15T11:46:56.696Z,35.48
2018-01-15T11:48:49.973Z,35.48
2018-01-15T11:49:49.883Z,35.38
2018-01-15T11:51:44.156Z,34.90
2018-01-15T11:52:44.051Z,35.19
2018-01-15T11:54:37.621Z,35.38
2018-01-15T11:55:37.236Z,35.19
2018-01-15T11:57:30.499Z,34.80
2018-01-15T11:58:30.413Z,35.10
2018-01-15T12:00:23.698Z,35.00
2018-01-15T12:01:23.584Z,35.10
2018-01-15T12:03:16.856Z,35.10
2018-01-15T12:04:16.775Z,34.90
2018-01-15T12:06:11.047Z,35.28
2018-01-15T12:07:10.954Z,35.10
2018-01-15T12:09:05.239Z,35.10
2018-01-15T12:10:05.139Z,35.00
2018-01-15T12:11:58.514Z,35.10
2018-01-15T12:12:58.317Z,35.19
2018-01-15T12:14:52.623Z,35.48
2018-01-15T12:15:52.504Z,35.48
2018-01-15T12:17:45.769Z,35.38
2018-01-15T12:18:45.678Z,35.48
2018-01-15T12:20:38.909Z,35.58
2018-01-15T12:21:38.823Z,35.67
2018-01-15T12:23:32.073Z,35.10
2018-01-15T12:24:31.995Z,35.28
2018-01-15T12:26:25.207Z,35.00
2018-01-15T12:27:25.118Z,35.19
2018-01-15T12:29:19.387Z,35.19
2018-01-15T12:30:19.278Z,35.48
2018-01-15T12:32:12.543Z,35.38
2018-01-15T12:33:12.469Z,35.48
2018-01-15T12:35:05.764Z,35.48
2018-01-15T12:36:05.643Z,35.28
2018-01-15T12:37:59.944Z,35.48
2018-01-15T12:38:59.827Z,35.38
2018-01-15T12:40:53.102Z,35.28
2018-01-15T12:41:53.024Z,35.38
2018-01-15T12:43:47.254Z,34.80
2018-01-15T12:44:47.168Z,35.10
2018-01-15T12:46:40.427Z,35.00
2018-01-15T12:47:40.330Z,35.00
2018-01-15T12:49:33.621Z,35.19
2018-01-15T12:50:33.527Z,35.10
2018-01-15T12:52:26.826Z,35.10
2018-01-15T12:53:26.706Z,35.10
2018-01-15T12:55:19.985Z,35.58
2018-01-15T12:56:19.919Z,35.28
2018-01-15T12:58:13.166Z,35.38
2018-01-15T12:59:13.069Z,35.10
2018-01-15T13:01:06.375Z,34.80
2018-01-15T13:02:06.288Z,35.10
2018-01-15T13:03:59.572Z,35.77
2018-01-15T13:04:59.444Z,35.19
2018-01-15T13:06:52.661Z,35.19
2018-01-15T13:07:52.578Z,35.48
2018-01-15T13:09:45.874Z,35.67
2018-01-15T13:10:45.759Z,35.67
2018-01-15T13:12:40.027Z,35.48
2018-01-15T13:13:39.927Z,34.90
2018-01-15T13:15:33.212Z,35.10
2018-01-15T13:16:33.093Z,35.48
2018-01-15T13:18:26.365Z,34.80
2018-01-15T13:19:26.256Z,34.90
2018-01-15T13:21:20.549Z,35.28
2018-01-15T13:22:20.444Z,35.28
2018-01-15T13:24:13.689Z,35.48
2018-01-15T13:25:13.606Z,35.28
2018-01-15T13:27:06.867Z,35.48
2018-01-15T13:28:06.750Z,35.58
2018-01-15T13:30:00.096Z,35.38
2018-01-15T13:30:59.913Z,35.28
2018-01-15T13:32:53.179Z,35.19
2018-01-15T13:33:53.062Z,35.28
2018-01-15T13:35:47.297Z,35.19
2018-01-15T13:36:47.238Z,35.28
2018-01-15T13:38:40.506Z,35.19
2018-01-15T13:39:40.403Z,35.58
2018-01-15T13:41:33.688Z,35.10
2018-01-15T13:42:33.590Z,35.10
2018-01-15T13:44:26.875Z,35.10
2018-01-15T13:45:26.752Z,35.00
2018-01-15T13:47:19.984Z,35.00
2018-01-15T13:48:19.894Z,34.90
2018-01-15T13:50:13.178Z,35.00
2018-01-15T13:51:13.069Z,35.19
2018-01-15T13:53:07.351Z,35.10
2018-01-15T13:54:07.264Z,35.10
2018-01-15T13:56:00.557Z,35.00
2018-01-15T13:57:00.432Z,35.10
2018-01-15T13:58:53.702Z,35.38
2018-01-15T13:59:53.622Z,35.28
2018-01-15T14:01:46.894Z,35.58
2018-01-15T14:02:46.773Z,35.48
2018-01-15T14:04:40.027Z,35.38
2018-01-15T14:05:39.935Z,35.28
2018-01-15T14:07:34.247Z,35.00
2018-01-15T14:08:34.122Z,35.10
2018-01-15T14:10:28.411Z,35.38
2018-01-15T14:11:28.322Z,35.77
2018-01-15T14:13:21.576Z,35.10
2018-01-15T14:14:21.468Z,35.28
2018-01-15T14:16:14.772Z,35.58
2018-01-15T14:17:14.677Z,35.67
2018-01-15T14:19:07.982Z,34.80
2018-01-15T14:20:07.861Z,35.38
2018-01-15T14:22:02.128Z,35.19
2018-01-15T14:23:02.061Z,35.19
2018-01-15T14:24:55.298Z,35.10
2018-01-15T14:25:55.199Z,35.10
2018-01-15T14:27:48.473Z,35.36
2018-01-15T14:28:48.397Z,35.38
2018-01-15T14:30:42.668Z,35.28
2018-01-15T14:31:42.548Z,35.00
2018-01-15T14:33:35.816Z,35.19
2018-01-15T14:34:35.767Z,35.19
2018-01-15T14:36:28.997Z,35.10
2018-01-15T14:37:28.890Z,35.19
2018-01-15T14:39:22.150Z,35.10
2018-01-15T14:40:22.054Z,35.10
2018-01-15T14:42:15.344Z,35.28
2018-01-15T14:43:15.254Z,35.67
2018-01-15T14:45:08.520Z,35.38
2018-01-15T14:46:08.415Z,35.48
2018-01-15T14:48:01.710Z,35.67
2018-01-15T14:49:01.586Z,35.38
2018-01-15T14:50:54.943Z,35.38
2018-01-15T14:51:54.786Z,34.80
2018-01-15T14:53:48.075Z,34.80
2018-01-15T14:54:47.968Z,35.00
2018-01-15T14:56:41.199Z,34.80
2018-01-15T14:57:41.113Z,34.98
2018-01-15T14:59:34.408Z,34.90
2018-01-15T15:00:34.320Z,34.90
2018-01-15T15:02:27.590Z,35.38
2018-01-15T15:03:27.504Z,34.80
2018-01-15T15:05:21.781Z,34.80
2018-01-15T15:06:21.671Z,35.19
2018-01-15T15:08:14.916Z,34.80
2018-01-15T15:09:14.836Z,34.90
2018-01-15T15:11:08.127Z,35.10
2018-01-15T15:12:08.027Z,34.80
2018-01-15T15:14:01.297Z,34.80
2018-01-15T15:15:01.360Z,35.08
2018-01-15T15:16:54.441Z,35.27
2018-01-15T15:17:54.325Z,35.00
2018-01-15T15:19:47.589Z,35.00
2018-01-15T15:20:47.505Z,35.19
2018-01-15T15:22:40.823Z,34.90
2018-01-15T15:23:40.702Z,35.10
2018-01-15T15:25:33.959Z,35.19
2018-01-15T15:26:33.887Z,35.77
2018-01-15T15:28:27.170Z,35.10
2018-01-15T15:29:27.044Z,35.10
2018-01-15T15:31:20.309Z,35.19
2018-01-15T15:32:20.228Z,35.17
2018-01-15T15:34:13.493Z,35.28
2018-01-15T15:35:13.403Z,35.77
2018-01-15T15:37:06.628Z,35.28
2018-01-15T15:38:06.539Z,35.28
2018-01-15T15:39:59.836Z,35.67
2018-01-15T15:40:59.706Z,35.48
2018-01-15T15:42:53.961Z,35.48
2018-01-15T15:43:53.873Z,35.10
2018-01-15T15:45:47.404Z,35.58
2018-01-15T15:46:47.035Z,35.86
2018-01-15T15:48:40.311Z,35.38
2018-01-15T15:49:40.250Z,35.38
2018-01-15T15:51:33.548Z,35.38
2018-01-15T15:52:33.452Z,35.48
2018-01-15T15:54:26.706Z,35.67
2018-01-15T15:55:26.659Z,35.77
2018-01-15T15:57:19.875Z,35.19
2018-01-15T15:58:19.760Z,34.98
2018-01-15T16:00:13.056Z,35.17
2018-01-15T16:01:12.951Z,35.17
2018-01-15T16:03:06.246Z,35.17
2018-01-15T16:04:06.141Z,34.98
2018-01-15T16:05:59.400Z,34.98
2018-01-15T16:06:59.311Z,35.28
2018-01-15T16:08:52.583Z,35.46
2018-01-15T16:09:52.493Z,35.17
2018-01-15T16:11:45.762Z,35.46
2018-01-15T16:12:45.676Z,35.56
2018-01-15T16:14:38.958Z,35.38
2018-01-15T16:15:38.853Z,35.28
2018-01-15T16:17:32.100Z,35.38
2018-01-15T16:18:32.015Z,35.58
2018-01-15T16:20:26.342Z,35.65
2018-01-15T16:21:26.237Z,35.86
2018-01-15T16:23:19.495Z,34.90
2018-01-15T16:24:19.407Z,35.48
2018-01-15T16:26:13.672Z,35.58
2018-01-15T16:27:13.574Z,35.00
2018-01-15T16:29:06.863Z,35.10
2018-01-15T16:30:06.771Z,35.17
2018-01-15T16:32:00.064Z,35.00
2018-01-15T16:32:59.949Z,35.08
2018-01-15T16:34:54.240Z,34.98
2018-01-15T16:35:54.138Z,34.98
2018-01-15T16:37:47.439Z,34.98
2018-01-15T16:38:47.321Z,34.88
2018-01-15T16:40:41.591Z,34.98
2018-01-15T16:41:41.500Z,34.98
2018-01-15T16:43:34.759Z,34.98
2018-01-15T16:44:34.657Z,34.98
2018-01-15T16:46:28.907Z,35.00
2018-01-15T16:47:28.808Z,35.00
2018-01-15T16:49:22.082Z,34.90
2018-01-15T16:50:22.030Z,34.70
2018-01-15T16:52:15.408Z,34.80
2018-01-15T16:53:15.319Z,34.70
2018-01-15T16:55:08.584Z,34.80
2018-01-15T16:56:08.483Z,34.61
2018-01-15T16:58:01.722Z,34.70
2018-01-15T16:59:01.635Z,34.90
2018-01-15T17:00:54.937Z,34.61
2018-01-15T17:01:54.830Z,34.42
2018-01-15T17:03:48.301Z,34.52
2018-01-15T17:04:48.096Z,34.61
2018-01-15T17:06:41.343Z,34.70
2018-01-15T17:07:41.213Z,34.52
2018-01-15T17:09:34.503Z,34.52
2018-01-15T17:10:34.412Z,34.61
2018-01-15T17:12:27.732Z,34.61
2018-01-15T17:13:27.611Z,34.80
2018-01-15T17:15:20.870Z,34.80
2018-01-15T17:16:20.775Z,34.72
2018-01-15T17:18:14.060Z,34.70
2018-01-15T17:19:13.960Z,34.70
2018-01-15T17:21:07.219Z,34.90
2018-01-15T17:22:07.111Z,34.61
2018-01-15T17:24:00.423Z,34.90
2018-01-15T17:25:00.294Z,34.80
2018-01-15T17:26:53.542Z,35.19
2018-01-15T17:27:53.436Z,34.52
2018-01-15T17:29:46.793Z,34.72
2018-01-15T17:30:46.688Z,34.61
2018-01-15T17:32:39.984Z,34.70
2018-01-15T17:33:39.895Z,34.80
2018-01-15T17:35:33.216Z,34.52
2018-01-15T17:36:33.109Z,35.38
2018-01-15T17:38:26.385Z,35.00
2018-01-15T17:39:26.299Z,34.42
2018-01-15T17:41:19.614Z,34.70
2018-01-15T17:42:19.478Z,34.70
2018-01-15T17:44:13.784Z,34.80
2018-01-15T17:45:13.655Z,34.90
2018-01-15T17:47:06.906Z,34.80
2018-01-15T17:48:06.786Z,34.70
2018-01-15T17:50:00.083Z,34.59
2018-01-15T17:51:00.024Z,34.50
2018-01-15T17:52:53.253Z,34.70
2018-01-15T17:53:53.157Z,34.59
2018-01-15T17:55:47.439Z,34.69
2018-01-15T17:56:47.351Z,34.90
2018-01-15T17:58:40.656Z,34.50
2018-01-15T17:59:40.531Z,34.88
2018-01-15T18:01:33.786Z,34.78
2018-01-15T18:02:33.710Z,34.78
2018-01-15T18:04:27.028Z,34.69
2018-01-15T18:05:26.922Z,34.59
2018-01-15T18:07:20.135Z,34.50
2018-01-15T18:08:20.052Z,34.40
2018-01-15T18:10:14.353Z,34.59
2018-01-15T18:11:14.261Z,34.59
2018-01-15T18:13:07.541Z,34.59
2018-01-15T18:14:07.442Z,34.59
2018-01-15T18:16:00.758Z,34.78
2018-01-15T18:17:00.642Z,34.69
2018-01-15T18:18:53.931Z,34.59
2018-01-15T18:19:53.849Z,34.69
2018-01-15T18:21:47.143Z,34.69
2018-01-15T18:22:47.014Z,34.69
2018-01-15T18:24:40.273Z,34.59
2018-01-15T18:25:40.177Z,34.50
2018-01-15T18:27:33.465Z,34.21
2018-01-15T18:28:33.361Z,34.50
2018-01-15T18:30:26.616Z,34.30
2018-01-15T18:31:26.535Z,34.50
2018-01-15T18:33:19.813Z,34.21
2018-01-15T18:34:19.693Z,34.59
2018-01-15T18:36:12.950Z,34.50